createdAt,value
2023-08-13T00:00:28.191Z,19.99
2023-08-13T00:02:54.948Z,19.96
2023-08-13T00:05:21.880Z,19.91
2023-08-13T00:07:48.458Z,19.91
2023-08-13T00:10:15.103Z,19.89
2023-08-13T00:12:41.866Z,19.91
2023-08-13T00:15:09.091Z,19.94
2023-08-13T00:17:35.731Z,19.88
2023-08-13T00:20:02.481Z,19.83
2023-08-13T00:22:30.576Z,19.76
2023-08-13T00:24:57.120Z,19.70
2023-08-13T00:27:23.796Z,19.66
2023-08-13T00:29:50.616Z,19.58
2023-08-13T00:32:17.462Z,19.56
2023-08-13T00:34:44.271Z,19.57
2023-08-13T00:37:10.826Z,19.60
2023-08-13T00:39:37.387Z,19.58
2023-08-13T00:42:04.779Z,19.57
2023-08-13T00:44:31.585Z,19.54
2023-08-13T00:46:58.283Z,19.50
2023-08-13T00:49:25.373Z,19.44
2023-08-13T00:51:52.266Z,19.39
2023-08-13T00:54:19.056Z,19.35
2023-08-13T00:56:48.161Z,19.36
2023-08-13T00:59:15.608Z,19.33
2023-08-13T01:01:43.530Z,19.35
2023-08-13T01:04:10.430Z,19.40
2023-08-13T01:06:51.988Z,19.44
2023-08-13T01:09:45.688Z,19.50
2023-08-13T01:12:15.576Z,19.56
2023-08-13T01:14:49.577Z,19.62
2023-08-13T01:17:18.866Z,19.65
2023-08-13T01:19:45.445Z,19.61
2023-08-13T01:22:12.431Z,19.62
2023-08-13T01:24:39.338Z,19.62
2023-08-13T01:27:32.793Z,19.58
2023-08-13T01:30:11.688Z,19.50
2023-08-13T01:32:51.943Z,19.43
2023-08-13T01:35:22.717Z,19.31
2023-08-13T01:37:50.926Z,19.27
2023-08-13T01:40:17.997Z,19.20
2023-08-13T01:42:44.587Z,19.11
2023-08-13T01:45:11.203Z,19.06
2023-08-13T01:47:38.027Z,19.02
2023-08-13T01:50:04.947Z,18.95
2023-08-13T01:52:32.517Z,18.92
2023-08-13T01:54:59.524Z,18.88
2023-08-13T01:57:26.179Z,18.90
2023-08-13T01:59:52.752Z,18.88
2023-08-13T02:02:19.504Z,18.92
2023-08-13T02:04:46.077Z,18.95
2023-08-13T02:07:12.733Z,18.94
2023-08-13T02:09:39.440Z,18.95
2023-08-13T02:12:06.327Z,19.00
2023-08-13T02:14:32.989Z,19.04
2023-08-13T02:17:01.002Z,19.08
2023-08-13T02:19:27.814Z,19.13
2023-08-13T02:21:54.372Z,19.16
2023-08-13T02:24:21.103Z,19.16
2023-08-13T02:26:47.661Z,19.17
2023-08-13T02:29:14.256Z,19.21
2023-08-13T02:31:40.954Z,19.20
2023-08-13T02:34:07.477Z,19.17
2023-08-13T02:36:34.040Z,19.16
2023-08-13T02:39:00.700Z,19.10
2023-08-13T02:41:27.282Z,19.04
2023-08-13T02:43:57.500Z,19.02
2023-08-13T02:46:26.195Z,18.98
2023-08-13T02:48:57.602Z,18.97
2023-08-13T02:51:25.494Z,18.95
2023-08-13T02:53:52.222Z,18.99
2023-08-13T02:56:21.767Z,18.99
2023-08-13T02:58:48.450Z,18.96
2023-08-13T03:01:15.205Z,18.93
2023-08-13T03:03:52.406Z,18.91
2023-08-13T03:06:24.060Z,18.84
2023-08-13T03:08:50.901Z,18.76
2023-08-13T03:11:18.372Z,18.65
2023-08-13T03:13:45.403Z,18.57
2023-08-13T03:16:12.131Z,18.56
2023-08-13T03:18:38.778Z,18.54
2023-08-13T03:21:05.372Z,18.52
2023-08-13T03:23:33.741Z,18.48
2023-08-13T03:26:01.529Z,18.44
2023-08-13T03:28:28.139Z,18.41
2023-08-13T03:31:02.047Z,18.38
2023-08-13T03:33:29.728Z,18.32
2023-08-13T03:35:56.238Z,18.32
2023-08-13T03:38:22.856Z,18.27
2023-08-13T03:40:49.531Z,18.25
2023-08-13T03:43:16.165Z,18.20
2023-08-13T03:45:44.036Z,18.16
2023-08-13T03:48:10.740Z,18.11
2023-08-13T03:50:43.885Z,18.06
2023-08-13T03:53:10.992Z,18.02
2023-08-13T03:55:38.669Z,17.99
2023-08-13T03:58:05.960Z,18.01
2023-08-13T04:00:32.594Z,18.03
2023-08-13T04:03:03.425Z,18.01
2023-08-13T04:05:38.556Z,17.99
2023-08-13T04:08:05.558Z,17.98
2023-08-13T04:10:32.410Z,17.99
2023-08-13T04:13:01.349Z,17.94
2023-08-13T04:15:30.874Z,17.95
2023-08-13T04:17:57.635Z,17.95
2023-08-13T04:20:24.214Z,17.96
2023-08-13T04:22:50.848Z,17.98
2023-08-13T04:25:17.486Z,17.99
2023-08-13T04:27:44.008Z,18.03
2023-08-13T04:30:10.929Z,18.08
2023-08-13T04:32:40.124Z,18.13
2023-08-13T04:35:07.302Z,18.15
2023-08-13T04:37:34.008Z,18.16
2023-08-13T04:40:00.657Z,18.19
2023-08-13T04:42:27.429Z,18.26
2023-08-13T04:44:53.976Z,18.35
2023-08-13T04:47:20.722Z,18.42
2023-08-13T04:49:47.277Z,18.53
2023-08-13T04:52:15.587Z,18.62
2023-08-13T04:54:44.116Z,18.74
2023-08-13T04:57:10.910Z,18.90
2023-08-13T04:59:37.493Z,19.10
2023-08-13T05:02:04.652Z,19.25
2023-08-13T05:04:31.382Z,19.35
2023-08-13T05:06:58.352Z,19.40
2023-08-13T05:09:24.978Z,19.48
2023-08-13T05:11:51.714Z,19.53
2023-08-13T05:14:18.593Z,19.54
2023-08-13T05:16:45.293Z,19.56
2023-08-13T05:19:11.867Z,19.58
2023-08-13T05:21:38.886Z,19.53
2023-08-13T05:24:06.216Z,19.55
2023-08-13T05:26:32.803Z,19.58
2023-08-13T05:28:59.415Z,19.64
2023-08-13T05:31:26.307Z,19.69
2023-08-13T05:33:55.049Z,19.67
2023-08-13T05:36:21.726Z,19.61
2023-08-13T05:38:48.453Z,19.51
2023-08-13T05:41:14.989Z,19.44
2023-08-13T05:43:41.802Z,19.41
2023-08-13T05:46:09.001Z,19.38
2023-08-13T05:48:35.925Z,19.38
2023-08-13T05:51:02.671Z,19.37
2023-08-13T05:53:29.266Z,19.57
2023-08-13T05:56:00.603Z,19.94
2023-08-13T05:58:27.378Z,20.32
2023-08-13T06:00:54.288Z,20.68
2023-08-13T06:03:21.197Z,21.02
2023-08-13T06:05:48.739Z,21.31
2023-08-13T06:08:15.362Z,21.60
2023-08-13T06:10:42.001Z,21.87
2023-08-13T06:13:08.773Z,22.13
2023-08-13T06:15:35.380Z,22.34
2023-08-13T06:18:02.049Z,22.64
2023-08-13T06:20:29.284Z,22.87
2023-08-13T06:22:55.935Z,23.10
2023-08-13T06:25:22.761Z,23.29
2023-08-13T06:27:49.446Z,23.55
2023-08-13T06:30:17.731Z,23.82
2023-08-13T06:32:44.410Z,24.08
2023-08-13T06:35:11.425Z,24.27
2023-08-13T06:37:50.978Z,24.42
2023-08-13T06:40:24.638Z,24.64
2023-08-13T06:42:51.244Z,24.84
2023-08-13T06:45:18.221Z,25.02
2023-08-13T06:47:45.514Z,25.22
2023-08-13T06:50:12.070Z,25.37
2023-08-13T06:52:38.837Z,25.44
2023-08-13T06:55:05.942Z,25.63
2023-08-13T06:57:32.595Z,25.75
2023-08-13T06:59:59.191Z,25.95
2023-08-13T07:02:28.066Z,26.07
2023-08-13T07:04:54.901Z,26.10
2023-08-13T07:07:21.474Z,26.28
2023-08-13T07:09:48.104Z,26.85
2023-08-13T07:12:14.984Z,27.33
2023-08-13T07:14:42.133Z,27.65
2023-08-13T07:17:08.815Z,27.97
2023-08-13T07:19:35.564Z,28.20
2023-08-13T07:22:02.479Z,28.26
2023-08-13T07:24:29.170Z,28.46
2023-08-13T07:26:55.698Z,28.49
2023-08-13T07:29:22.411Z,28.91
2023-08-13T07:31:49.090Z,29.14
2023-08-13T07:34:15.768Z,29.74
2023-08-13T07:36:42.774Z,30.23
2023-08-13T07:39:11.126Z,30.62
2023-08-13T07:41:37.704Z,31.25
2023-08-13T07:44:06.375Z,32.13
2023-08-13T07:46:32.947Z,32.65
2023-08-13T07:48:59.510Z,33.28
2023-08-13T07:51:26.449Z,34.29
2023-08-13T07:53:53.144Z,35.27
2023-08-13T07:56:19.758Z,35.77
2023-08-13T07:58:46.313Z,36.37
2023-08-13T08:01:13.816Z,37.38
2023-08-13T08:03:40.504Z,38.42
2023-08-13T08:06:07.244Z,39.35
2023-08-13T08:08:34.215Z,39.91
2023-08-13T08:11:00.753Z,40.17
2023-08-13T08:13:27.410Z,40.95
2023-08-13T08:15:54.151Z,41.79
2023-08-13T08:18:20.754Z,42.63
2023-08-13T08:20:47.279Z,43.74
2023-08-13T08:23:15.208Z,43.91
2023-08-13T08:25:42.007Z,44.35
2023-08-13T08:28:08.693Z,44.25
2023-08-13T08:30:35.542Z,45.06
2023-08-13T08:33:02.373Z,45.01
2023-08-13T08:35:28.875Z,45.70
2023-08-13T08:37:55.588Z,46.35
2023-08-13T08:40:22.211Z,47.08
2023-08-13T08:42:48.757Z,46.31
2023-08-13T08:45:17.335Z,46.54
2023-08-13T08:47:44.485Z,47.43
2023-08-13T08:50:13.094Z,48.12
2023-08-13T08:52:40.085Z,48.11
2023-08-13T08:55:06.862Z,48.33
2023-08-13T08:57:33.587Z,48.86
2023-08-13T09:00:01.063Z,48.21
2023-08-13T09:02:27.912Z,48.63
2023-08-13T09:04:54.682Z,49.56
2023-08-13T09:07:29.734Z,48.89
2023-08-13T09:09:56.296Z,48.86
2023-08-13T09:12:23.057Z,49.25
2023-08-13T09:14:54.303Z,49.25
2023-08-13T09:17:23.782Z,47.97
2023-08-13T09:19:50.435Z,48.44
2023-08-13T09:22:17.511Z,47.78
2023-08-13T09:24:47.948Z,49.17
2023-08-13T09:27:15.483Z,48.93
2023-08-13T09:29:42.599Z,48.13
2023-08-13T09:32:09.204Z,48.05
2023-08-13T09:34:35.925Z,48.29
2023-08-13T09:37:03.203Z,48.14
2023-08-13T09:39:32.146Z,48.57
2023-08-13T09:42:00.571Z,48.52
2023-08-13T09:44:29.060Z,49.03
2023-08-13T09:47:07.827Z,49.33
2023-08-13T09:49:35.377Z,49.55
2023-08-13T09:52:09.428Z,49.40
2023-08-13T09:54:47.230Z,49.40
2023-08-13T09:57:17.344Z,48.93
2023-08-13T09:59:46.182Z,49.43
2023-08-13T10:02:15.450Z,48.99
2023-08-13T10:04:43.326Z,49.23
2023-08-13T10:07:10.365Z,49.14
2023-08-13T10:09:38.665Z,49.71
2023-08-13T10:12:10.982Z,50.18
2023-08-13T10:14:38.068Z,50.62
2023-08-13T10:17:06.935Z,50.04
2023-08-13T10:19:38.627Z,50.74
2023-08-13T10:22:05.634Z,50.35
2023-08-13T10:24:32.446Z,50.92
2023-08-13T10:27:00.020Z,51.34
2023-08-13T10:29:36.187Z,51.24
2023-08-13T10:32:14.046Z,51.50
2023-08-13T10:34:55.077Z,51.73
2023-08-13T10:37:23.635Z,51.84
2023-08-13T10:39:56.350Z,51.16
2023-08-13T10:42:33.841Z,51.00
2023-08-13T10:45:08.728Z,51.25
2023-08-13T10:47:48.125Z,51.01
2023-08-13T10:50:24.400Z,51.40
2023-08-13T10:52:53.398Z,51.57
2023-08-13T10:55:24.999Z,51.24
2023-08-13T10:57:55.262Z,51.59
2023-08-13T11:00:26.474Z,51.64
2023-08-13T11:03:20.253Z,50.90
2023-08-13T11:05:47.950Z,51.22
2023-08-13T11:08:41.979Z,49.28
2023-08-13T11:11:18.225Z,50.18
2023-08-13T11:13:46.344Z,50.64
2023-08-13T11:16:13.415Z,50.72
2023-08-13T11:18:40.144Z,50.76
2023-08-13T11:21:07.213Z,51.05
2023-08-13T11:23:33.997Z,51.40
2023-08-13T11:26:00.822Z,51.06
2023-08-13T11:28:28.762Z,51.04
2023-08-13T11:30:57.923Z,51.33
2023-08-13T11:33:25.585Z,51.08
2023-08-13T11:35:52.828Z,51.72
2023-08-13T11:38:20.336Z,51.13
2023-08-13T11:40:48.838Z,51.24
2023-08-13T11:43:15.557Z,51.12
2023-08-13T11:45:43.248Z,51.10
2023-08-13T11:48:16.122Z,51.36
2023-08-13T11:50:48.971Z,50.52
2023-08-13T11:53:17.035Z,50.92
2023-08-13T11:55:46.189Z,50.33
2023-08-13T11:58:17.650Z,50.01
2023-08-13T12:00:44.893Z,49.45
2023-08-13T12:03:13.545Z,48.57
2023-08-13T12:05:40.714Z,48.20
2023-08-13T12:08:10.360Z,47.56
2023-08-13T12:10:38.234Z,46.46
2023-08-13T12:13:05.363Z,46.77
2023-08-13T12:15:35.020Z,47.25
2023-08-13T12:18:01.804Z,48.22
2023-08-13T12:20:28.879Z,47.98
2023-08-13T12:22:56.226Z,48.33
2023-08-13T12:25:22.855Z,48.41
2023-08-13T12:27:52.498Z,49.37
2023-08-13T12:30:19.327Z,49.00
2023-08-13T12:32:46.081Z,49.79
2023-08-13T12:35:13.550Z,49.38
2023-08-13T12:37:40.197Z,49.03
2023-08-13T12:40:10.294Z,49.23
2023-08-13T12:42:37.763Z,49.16
2023-08-13T12:45:07.860Z,49.52
2023-08-13T12:47:35.866Z,49.02
2023-08-13T12:50:06.905Z,49.26
2023-08-13T12:52:33.708Z,49.53
2023-08-13T12:55:00.492Z,48.81
2023-08-13T12:57:27.270Z,47.84
2023-08-13T12:59:55.278Z,47.58
2023-08-13T13:02:23.291Z,47.03
2023-08-13T13:04:50.653Z,45.48
2023-08-13T13:07:17.812Z,43.67
2023-08-13T13:09:44.433Z,41.60
2023-08-13T13:12:10.943Z,39.89
2023-08-13T13:14:37.525Z,39.02
2023-08-13T13:17:04.274Z,38.38
2023-08-13T13:19:30.876Z,37.88
2023-08-13T13:21:57.389Z,37.15
2023-08-13T13:24:24.560Z,36.56
2023-08-13T13:26:51.134Z,36.04
2023-08-13T13:29:17.732Z,35.80
2023-08-13T13:31:45.679Z,35.36
2023-08-13T13:34:13.661Z,35.20
2023-08-13T13:36:42.330Z,34.87
2023-08-13T13:39:09.059Z,34.40
2023-08-13T13:41:35.613Z,34.10
2023-08-13T13:44:02.291Z,34.05
2023-08-13T13:46:29.015Z,33.87
2023-08-13T13:48:55.605Z,33.74
2023-08-13T13:51:22.247Z,33.55
2023-08-13T13:53:49.979Z,33.41
2023-08-13T13:56:16.538Z,33.21
2023-08-13T13:58:43.142Z,33.11
2023-08-13T14:01:09.838Z,32.99
2023-08-13T14:03:36.721Z,32.91
2023-08-13T14:06:03.608Z,32.77
2023-08-13T14:08:30.175Z,32.67
2023-08-13T14:10:56.769Z,32.56
2023-08-13T14:13:23.432Z,32.38
2023-08-13T14:15:50.134Z,32.25
2023-08-13T14:18:16.749Z,32.17
2023-08-13T14:20:43.340Z,32.12
2023-08-13T14:23:09.903Z,32.01
2023-08-13T14:25:36.566Z,31.88
2023-08-13T14:28:04.292Z,31.78
2023-08-13T14:30:31.148Z,31.73
2023-08-13T14:32:57.834Z,31.59
2023-08-13T14:35:24.555Z,31.48
2023-08-13T14:37:51.212Z,31.46
2023-08-13T14:40:18.083Z,31.43
2023-08-13T14:42:44.729Z,31.42
2023-08-13T14:45:11.458Z,31.38
2023-08-13T14:47:38.171Z,31.25
2023-08-13T14:50:05.440Z,31.29
2023-08-13T14:52:32.148Z,31.20
2023-08-13T14:54:58.869Z,31.14
2023-08-13T14:57:25.462Z,31.00
2023-08-13T14:59:52.151Z,30.82
2023-08-13T15:02:18.933Z,30.69
2023-08-13T15:04:45.940Z,30.62
2023-08-13T15:07:12.541Z,30.56
2023-08-13T15:09:39.724Z,30.57
2023-08-13T15:12:06.802Z,30.48
2023-08-13T15:14:33.417Z,30.37
2023-08-13T15:17:00.105Z,30.32
2023-08-13T15:19:28.149Z,30.26
2023-08-13T15:21:54.703Z,30.20
2023-08-13T15:24:21.319Z,30.15
2023-08-13T15:26:47.884Z,30.08
2023-08-13T15:29:14.458Z,30.01
2023-08-13T15:31:41.271Z,30.00
2023-08-13T15:34:11.349Z,29.96
2023-08-13T15:36:37.939Z,29.96
2023-08-13T15:39:05.999Z,30.00
2023-08-13T15:41:33.458Z,30.04
2023-08-13T15:44:02.091Z,30.11
2023-08-13T15:46:29.426Z,30.16
2023-08-13T15:48:56.036Z,30.18
2023-08-13T15:51:23.267Z,30.21
2023-08-13T15:53:52.382Z,30.23
2023-08-13T15:56:19.064Z,30.21
2023-08-13T15:58:45.725Z,30.20
2023-08-13T16:01:12.882Z,30.18
2023-08-13T16:03:39.551Z,30.17
2023-08-13T16:06:06.113Z,30.20
2023-08-13T16:08:32.769Z,30.22
2023-08-13T16:11:00.399Z,30.23
2023-08-13T16:13:27.941Z,30.18
2023-08-13T16:15:54.887Z,30.16
2023-08-13T16:18:22.912Z,30.08
2023-08-13T16:20:49.891Z,30.06
2023-08-13T16:23:16.552Z,30.01
2023-08-13T16:25:43.186Z,29.98
2023-08-13T16:28:09.767Z,29.87
2023-08-13T16:30:36.490Z,29.78
2023-08-13T16:33:03.474Z,29.75
2023-08-13T16:35:30.290Z,29.73
2023-08-13T16:37:57.367Z,29.72
2023-08-13T16:40:23.972Z,29.63
2023-08-13T16:43:04.337Z,29.59
2023-08-13T16:45:33.383Z,29.50
2023-08-13T16:48:00.338Z,29.41
2023-08-13T16:50:27.259Z,29.33
2023-08-13T16:52:54.241Z,29.27
2023-08-13T16:55:22.308Z,29.25
2023-08-13T16:57:49.230Z,29.21
2023-08-13T17:00:16.118Z,29.18
2023-08-13T17:02:44.750Z,29.15
2023-08-13T17:05:13.232Z,29.14
2023-08-13T17:07:40.376Z,29.08
2023-08-13T17:10:08.639Z,29.05
2023-08-13T17:12:37.043Z,29.00
2023-08-13T17:15:21.403Z,28.91
2023-08-13T17:17:51.781Z,28.87
2023-08-13T17:20:21.360Z,28.85
2023-08-13T17:22:49.094Z,28.81
2023-08-13T17:25:15.866Z,28.82
2023-08-13T17:27:42.676Z,28.79
2023-08-13T17:30:09.952Z,28.70
2023-08-13T17:32:36.611Z,28.60
2023-08-13T17:35:03.773Z,28.48
2023-08-13T17:37:32.403Z,28.36
2023-08-13T17:40:00.280Z,28.25
2023-08-13T17:42:27.134Z,28.18
2023-08-13T17:44:53.988Z,28.12
2023-08-13T17:47:22.342Z,28.06
2023-08-13T17:49:49.646Z,28.01
2023-08-13T17:52:17.037Z,27.93
2023-08-13T17:54:44.260Z,27.88
2023-08-13T17:57:10.877Z,27.78
2023-08-13T17:59:37.471Z,27.67
2023-08-13T18:02:04.230Z,27.54
2023-08-13T18:04:30.829Z,27.44
2023-08-13T18:06:57.628Z,27.37
2023-08-13T18:09:24.434Z,27.24
2023-08-13T18:11:53.181Z,27.14
2023-08-13T18:14:20.234Z,27.05
2023-08-13T18:16:46.960Z,26.93
2023-08-13T18:19:14.415Z,26.81
2023-08-13T18:21:41.160Z,26.70
2023-08-13T18:24:08.917Z,26.58
2023-08-13T18:26:35.736Z,26.48
2023-08-13T18:29:02.305Z,26.35
2023-08-13T18:31:29.450Z,26.25
2023-08-13T18:33:56.121Z,26.15
2023-08-13T18:36:22.841Z,26.06
2023-08-13T18:38:49.638Z,26.00
2023-08-13T18:41:16.326Z,25.98
2023-08-13T18:43:43.267Z,25.94
2023-08-13T18:46:10.063Z,25.91
2023-08-13T18:48:36.776Z,25.83
2023-08-13T18:51:03.754Z,25.77
2023-08-13T18:53:30.469Z,25.70
2023-08-13T18:55:57.289Z,25.61
2023-08-13T18:58:23.964Z,25.52
2023-08-13T19:00:51.137Z,25.45
2023-08-13T19:03:17.847Z,25.36
2023-08-13T19:05:45.782Z,25.25
2023-08-13T19:08:12.706Z,25.18
2023-08-13T19:10:46.492Z,25.10
2023-08-13T19:13:14.187Z,25.04
2023-08-13T19:15:41.479Z,24.99
2023-08-13T19:18:08.254Z,24.90
2023-08-13T19:20:35.653Z,24.88
2023-08-13T19:23:03.714Z,24.81
2023-08-13T19:25:30.620Z,24.72
2023-08-13T19:27:57.389Z,24.59
2023-08-13T19:30:24.122Z,24.56
2023-08-13T19:32:50.824Z,24.45
2023-08-13T19:35:17.731Z,24.37
2023-08-13T19:37:45.578Z,24.25
2023-08-13T19:40:12.695Z,24.25
2023-08-13T19:42:39.361Z,24.17
2023-08-13T19:45:06.573Z,24.10
2023-08-13T19:47:33.273Z,24.07
2023-08-13T19:50:00.134Z,24.03
2023-08-13T19:52:26.758Z,23.98
2023-08-13T19:54:53.373Z,23.89
2023-08-13T19:57:21.024Z,23.89
2023-08-13T19:59:49.369Z,23.92
2023-08-13T20:02:16.261Z,23.97
2023-08-13T20:04:43.051Z,23.91
2023-08-13T20:07:09.870Z,23.91
2023-08-13T20:09:36.459Z,23.89
2023-08-13T20:12:03.220Z,23.82
2023-08-13T20:14:29.890Z,23.74
2023-08-13T20:16:56.462Z,23.71
2023-08-13T20:19:23.055Z,23.71
2023-08-13T20:21:52.726Z,23.70
2023-08-13T20:24:20.440Z,23.70
2023-08-13T20:26:47.941Z,23.71
2023-08-13T20:29:15.678Z,23.71
2023-08-13T20:31:43.451Z,23.72
2023-08-13T20:34:10.467Z,23.68
2023-08-13T20:36:37.969Z,23.69
2023-08-13T20:39:05.221Z,23.67
2023-08-13T20:41:32.193Z,23.66
2023-08-13T20:43:58.901Z,23.58
2023-08-13T20:46:25.928Z,23.57
2023-08-13T20:48:52.730Z,23.57
2023-08-13T20:51:19.746Z,23.57
2023-08-13T20:53:46.385Z,23.60
2023-08-13T20:56:13.036Z,23.56
2023-08-13T20:58:39.634Z,23.51
2023-08-13T21:01:07.448Z,23.49
2023-08-13T21:03:34.181Z,23.44
2023-08-13T21:06:00.802Z,23.42
2023-08-13T21:08:27.386Z,23.37
2023-08-13T21:10:53.978Z,23.38
2023-08-13T21:13:20.590Z,23.37
2023-08-13T21:15:47.577Z,23.37
2023-08-13T21:18:14.231Z,23.37
2023-08-13T21:20:40.807Z,23.32
2023-08-13T21:23:07.350Z,23.34
2023-08-13T21:25:34.668Z,23.34
2023-08-13T21:28:01.326Z,23.34
2023-08-13T21:30:27.976Z,23.34
2023-08-13T21:32:56.018Z,23.29
2023-08-13T21:35:24.118Z,23.27
2023-08-13T21:37:50.746Z,23.28
2023-08-13T21:40:17.409Z,23.17
2023-08-13T21:42:44.111Z,23.10
2023-08-13T21:45:10.825Z,23.09
2023-08-13T21:47:37.476Z,23.09
2023-08-13T21:50:04.430Z,23.12
2023-08-13T21:52:31.126Z,23.14
2023-08-13T21:54:57.706Z,23.01
2023-08-13T21:57:24.277Z,22.96
2023-08-13T21:59:50.774Z,22.87
2023-08-13T22:02:17.517Z,22.82
2023-08-13T22:04:45.407Z,22.78
2023-08-13T22:07:11.967Z,22.74
2023-08-13T22:09:38.491Z,22.68
2023-08-13T22:12:05.183Z,22.67
2023-08-13T22:14:31.734Z,22.67
2023-08-13T22:16:58.273Z,22.66
2023-08-13T22:19:46.649Z,22.62
2023-08-13T22:22:13.254Z,22.56
2023-08-13T22:24:39.843Z,22.52
2023-08-13T22:27:07.079Z,22.50
2023-08-13T22:29:33.667Z,22.52
2023-08-13T22:32:00.322Z,22.48
2023-08-13T22:34:26.932Z,22.47
2023-08-13T22:36:53.611Z,22.44
2023-08-13T22:39:20.155Z,22.39
2023-08-13T22:41:46.689Z,22.28
2023-08-13T22:44:13.237Z,22.26
2023-08-13T22:46:39.837Z,22.23
2023-08-13T22:49:06.393Z,22.20
2023-08-13T22:51:32.974Z,22.16
2023-08-13T22:53:59.514Z,22.09
2023-08-13T22:56:29.677Z,22.04
2023-08-13T22:58:56.484Z,21.99
2023-08-13T23:01:23.103Z,21.93
2023-08-13T23:03:49.740Z,21.88
2023-08-13T23:06:18.748Z,21.86
2023-08-13T23:08:45.447Z,21.85
2023-08-13T23:11:12.052Z,21.74
2023-08-13T23:13:38.623Z,21.75
2023-08-13T23:16:05.841Z,21.70
2023-08-13T23:18:32.509Z,21.66
2023-08-13T23:20:59.169Z,21.67
2023-08-13T23:23:25.756Z,21.65
2023-08-13T23:25:52.352Z,21.58
2023-08-13T23:28:19.092Z,21.59
2023-08-13T23:30:45.683Z,21.52
2023-08-13T23:33:12.389Z,21.47
2023-08-13T23:35:38.994Z,21.34
2023-08-13T23:38:05.588Z,21.24
2023-08-13T23:40:32.154Z,21.16
2023-08-13T23:42:58.831Z,21.09
2023-08-13T23:45:25.466Z,20.95
2023-08-13T23:47:52.111Z,20.84
2023-08-13T23:50:18.741Z,20.72
2023-08-13T23:52:45.271Z,20.69
2023-08-13T23:55:11.815Z,20.68
2023-08-13T23:57:38.401Z,20.60
